sensor_id;sensor_type;location;lat;lon;timestamp;P1;durP1;ratioP1;P2;durP2;ratioP2
20593;SDS011;10455;48.732;10.266;2023-04-15T00:00:56;8.27;;;7.47;;
20593;SDS011;10455;48.732;10.266;2023-04-15T00:06:00;9.43;;;8.50;;
20593;SDS011;10455;48.732;10.266;2023-04-15T00:11:02;8.40;;;7.47;;
20593;SDS011;10455;48.732;10.266;2023-04-15T00:16:05;8.97;;;7.20;;
20593;SDS011;10455;48.732;10.266;2023-04-15T00:21:11;9.53;;;8.13;;
20593;SDS011;10455;48.732;10.266;2023-04-15T00:26:13;9.77;;;8.70;;
20593;SDS011;10455;48.732;10.266;2023-04-15T00:31:15;8.97;;;8.03;;
20593;SDS011;10455;48.732;10.266;2023-04-15T00:36:18;10.03;;;7.20;;
20593;SDS011;10455;48.732;10.266;2023-04-15T00:41:20;8.13;;;7.33;;
20593;SDS011;10455;48.732;10.266;2023-04-15T00:46:22;10.67;;;8.13;;
20593;SDS011;10455;48.732;10.266;2023-04-15T00:51:26;9.20;;;8.17;;
20593;SDS011;10455;48.732;10.266;2023-04-15T00:56:28;9.77;;;8.20;;
20593;SDS011;10455;48.732;10.266;2023-04-15T01:01:30;10.83;;;8.10;;
20593;SDS011;10455;48.732;10.266;2023-04-15T01:06:35;11.43;;;9.03;;
20593;SDS011;10455;48.732;10.266;2023-04-15T01:11:37;11.87;;;9.17;;
20593;SDS011;10455;48.732;10.266;2023-04-15T01:16:39;13.10;;;10.83;;
20593;SDS011;10455;48.732;10.266;2023-04-15T01:21:42;10.97;;;9.73;;
20593;SDS011;10455;48.732;10.266;2023-04-15T01:26:46;13.10;;;9.83;;
20593;SDS011;10455;48.732;10.266;2023-04-15T01:31:49;11.43;;;10.20;;
20593;SDS011;10455;48.732;10.266;2023-04-15T01:36:52;12.33;;;10.47;;
20593;SDS011;10455;48.732;10.266;2023-04-15T01:41:56;12.93;;;10.87;;
20593;SDS011;10455;48.732;10.266;2023-04-15T01:46:57;12.93;;;10.50;;
20593;SDS011;10455;48.732;10.266;2023-04-15T01:51:59;13.13;;;10.43;;
20593;SDS011;10455;48.732;10.266;2023-04-15T01:57:03;10.87;;;9.43;;
20593;SDS011;10455;48.732;10.266;2023-04-15T02:02:04;11.90;;;10.17;;
20593;SDS011;10455;48.732;10.266;2023-04-15T02:07:06;11.83;;;9.50;;
20593;SDS011;10455;48.732;10.266;2023-04-15T02:12:10;11.43;;;10.33;;
20593;SDS011;10455;48.732;10.266;2023-04-15T02:17:12;13.10;;;9.77;;
20593;SDS011;10455;48.732;10.266;2023-04-15T02:22:14;11.20;;;10.00;;
20593;SDS011;10455;48.732;10.266;2023-04-15T02:27:18;14.03;;;10.27;;
20593;SDS011;10455;48.732;10.266;2023-04-15T02:32:21;11.17;;;9.37;;
20593;SDS011;10455;48.732;10.266;2023-04-15T02:37:23;10.27;;;9.10;;
20593;SDS011;10455;48.732;10.266;2023-04-15T02:42:31;11.37;;;8.80;;
20593;SDS011;10455;48.732;10.266;2023-04-15T02:47:33;9.77;;;8.67;;
20593;SDS011;10455;48.732;10.266;2023-04-15T02:52:35;9.80;;;8.80;;
20593;SDS011;10455;48.732;10.266;2023-04-15T02:57:38;11.23;;;8.73;;
20593;SDS011;10455;48.732;10.266;2023-04-15T03:02:44;12.07;;;9.53;;
20593;SDS011;10455;48.732;10.266;2023-04-15T03:07:47;10.17;;;9.27;;
20593;SDS011;10455;48.732;10.266;2023-04-15T03:12:50;10.37;;;9.10;;
20593;SDS011;10455;48.732;10.266;2023-04-15T03:17:52;8.83;;;7.93;;
20593;SDS011;10455;48.732;10.266;2023-04-15T03:22:54;8.80;;;8.00;;
20593;SDS011;10455;48.732;10.266;2023-04-15T03:27:58;9.00;;;8.10;;
20593;SDS011;10455;48.732;10.266;2023-04-15T03:33:03;8.73;;;7.93;;
20593;SDS011;10455;48.732;10.266;2023-04-15T03:38:05;9.03;;;7.40;;
20593;SDS011;10455;48.732;10.266;2023-04-15T03:43:09;9.60;;;7.70;;
20593;SDS011;10455;48.732;10.266;2023-04-15T03:48:11;10.90;;;8.47;;
20593;SDS011;10455;48.732;10.266;2023-04-15T03:53:13;9.50;;;8.50;;
20593;SDS011;10455;48.732;10.266;2023-04-15T03:58:17;10.40;;;8.80;;
20593;SDS011;10455;48.732;10.266;2023-04-15T04:03:19;9.33;;;8.20;;
20593;SDS011;10455;48.732;10.266;2023-04-15T04:08:21;14.53;;;9.93;;
20593;SDS011;10455;48.732;10.266;2023-04-15T04:13:24;9.70;;;8.67;;
20593;SDS011;10455;48.732;10.266;2023-04-15T04:18:26;9.47;;;8.13;;
20593;SDS011;10455;48.732;10.266;2023-04-15T04:23:30;9.17;;;8.37;;
20593;SDS011;10455;48.732;10.266;2023-04-15T04:28:34;11.03;;;8.20;;
20593;SDS011;10455;48.732;10.266;2023-04-15T04:33:36;8.60;;;7.70;;
20593;SDS011;10455;48.732;10.266;2023-04-15T04:38:38;9.80;;;8.00;;
20593;SDS011;10455;48.732;10.266;2023-04-15T04:43:41;9.07;;;8.13;;
20593;SDS011;10455;48.732;10.266;2023-04-15T04:48:43;10.23;;;7.40;;
20593;SDS011;10455;48.732;10.266;2023-04-15T04:53:45;9.80;;;7.50;;
20593;SDS011;10455;48.732;10.266;2023-04-15T04:58:49;10.67;;;8.50;;
20593;SDS011;10455;48.732;10.266;2023-04-15T05:03:50;8.70;;;7.43;;
20593;SDS011;10455;48.732;10.266;2023-04-15T05:08:52;9.67;;;8.00;;
20593;SDS011;10455;48.732;10.266;2023-04-15T05:13:57;9.20;;;7.50;;
20593;SDS011;10455;48.732;10.266;2023-04-15T05:19:00;8.47;;;6.80;;
20593;SDS011;10455;48.732;10.266;2023-04-15T05:24:02;7.37;;;6.67;;
20593;SDS011;10455;48.732;10.266;2023-04-15T05:29:06;8.30;;;6.17;;
20593;SDS011;10455;48.732;10.266;2023-04-15T05:34:09;7.17;;;6.50;;
20593;SDS011;10455;48.732;10.266;2023-04-15T05:39:11;7.47;;;6.00;;
20593;SDS011;10455;48.732;10.266;2023-04-15T05:44:14;6.20;;;5.70;;
20593;SDS011;10455;48.732;10.266;2023-04-15T05:49:17;6.77;;;6.17;;
20593;SDS011;10455;48.732;10.266;2023-04-15T05:54:18;5.60;;;5.10;;
20593;SDS011;10455;48.732;10.266;2023-04-15T05:59:22;4.80;;;4.40;;
20593;SDS011;10455;48.732;10.266;2023-04-15T06:04:24;5.20;;;4.80;;
20593;SDS011;10455;48.732;10.266;2023-04-15T06:09:26;5.57;;;5.07;;
20593;SDS011;10455;48.732;10.266;2023-04-15T06:14:30;5.37;;;4.87;;
20593;SDS011;10455;48.732;10.266;2023-04-15T06:19:32;12.37;;;11.37;;
20593;SDS011;10455;48.732;10.266;2023-04-15T06:24:35;6.83;;;4.07;;
20593;SDS011;10455;48.732;10.266;2023-04-15T06:29:38;4.93;;;4.40;;
20593;SDS011;10455;48.732;10.266;2023-04-15T06:34:40;5.63;;;4.70;;
20593;SDS011;10455;48.732;10.266;2023-04-15T06:39:42;6.97;;;4.10;;
20593;SDS011;10455;48.732;10.266;2023-04-15T06:44:46;4.50;;;4.10;;
20593;SDS011;10455;48.732;10.266;2023-04-15T06:49:48;6.20;;;4.43;;
20593;SDS011;10455;48.732;10.266;2023-04-15T06:54:50;6.22;;;4.22;;
20593;SDS011;10455;48.732;10.266;2023-04-15T06:59:53;4.78;;;3.45;;
20593;SDS011;10455;48.732;10.266;2023-04-15T07:04:55;5.63;;;3.60;;
20593;SDS011;10455;48.732;10.266;2023-04-15T07:09:57;3.70;;;3.40;;
20593;SDS011;10455;48.732;10.266;2023-04-15T07:15:02;5.38;;;3.95;;
20593;SDS011;10455;48.732;10.266;2023-04-15T07:20:05;5.38;;;3.70;;
20593;SDS011;10455;48.732;10.266;2023-04-15T07:25:08;5.47;;;4.00;;
20593;SDS011;10455;48.732;10.266;2023-04-15T07:30:12;4.60;;;4.28;;
20593;SDS011;10455;48.732;10.266;2023-04-15T07:35:14;5.63;;;4.23;;
20593;SDS011;10455;48.732;10.266;2023-04-15T07:40:16;6.27;;;4.97;;
20593;SDS011;10455;48.732;10.266;2023-04-15T07:45:19;6.10;;;5.50;;
20593;SDS011;10455;48.732;10.266;2023-04-15T07:50:21;5.83;;;5.07;;
20593;SDS011;10455;48.732;10.266;2023-04-15T07:55:23;5.63;;;5.13;;
20593;SDS011;10455;48.732;10.266;2023-04-15T08:00:27;5.33;;;4.80;;
20593;SDS011;10455;48.732;10.266;2023-04-15T08:05:29;5.00;;;4.60;;
20593;SDS011;10455;48.732;10.266;2023-04-15T08:10:31;5.30;;;4.80;;
20593;SDS011;10455;48.732;10.266;2023-04-15T08:15:34;5.23;;;4.73;;
20593;SDS011;10455;48.732;10.266;2023-04-15T08:20:37;5.37;;;4.87;;
20593;SDS011;10455;48.732;10.266;2023-04-15T08:25:38;6.07;;;5.00;;
20593;SDS011;10455;48.732;10.266;2023-04-15T08:30:42;5.43;;;4.40;;
20593;SDS011;10455;48.732;10.266;2023-04-15T08:35:44;5.63;;;4.80;;
20593;SDS011;10455;48.732;10.266;2023-04-15T08:40:46;5.10;;;4.70;;
20593;SDS011;10455;48.732;10.266;2023-04-15T08:45:50;4.73;;;4.20;;
20593;SDS011;10455;48.732;10.266;2023-04-15T08:50:53;6.57;;;4.85;;
20593;SDS011;10455;48.732;10.266;2023-04-15T08:55:56;7.35;;;4.20;;
20593;SDS011;10455;48.732;10.266;2023-04-15T09:01:01;4.75;;;4.10;;
20593;SDS011;10455;48.732;10.266;2023-04-15T09:06:04;6.13;;;4.45;;
20593;SDS011;10455;48.732;10.266;2023-04-15T09:11:05;5.00;;;4.28;;
20593;SDS011;10455;48.732;10.266;2023-04-15T09:16:09;5.50;;;4.43;;
20593;SDS011;10455;48.732;10.266;2023-04-15T09:21:11;5.25;;;4.75;;
20593;SDS011;10455;48.732;10.266;2023-04-15T09:26:14;5.82;;;5.32;;
20593;SDS011;10455;48.732;10.266;2023-04-15T09:31:19;4.65;;;4.25;;
20593;SDS011;10455;48.732;10.266;2023-04-15T09:36:35;5.65;;;5.15;;
20593;SDS011;10455;48.732;10.266;2023-04-15T09:42:02;7.88;;;5.78;;
20593;SDS011;10455;48.732;10.266;2023-04-15T09:47:07;6.70;;;5.78;;
20593;SDS011;10455;48.732;10.266;2023-04-15T09:52:09;7.40;;;5.57;;
20593;SDS011;10455;48.732;10.266;2023-04-15T09:57:14;6.15;;;5.43;;
20593;SDS011;10455;48.732;10.266;2023-04-15T10:02:18;6.53;;;5.70;;
20593;SDS011;10455;48.732;10.266;2023-04-15T10:07:20;5.90;;;5.30;;
20593;SDS011;10455;48.732;10.266;2023-04-15T10:12:23;6.50;;;5.82;;
20593;SDS011;10455;48.732;10.266;2023-04-15T10:17:28;6.15;;;5.13;;
20593;SDS011;10455;48.732;10.266;2023-04-15T10:22:34;6.72;;;5.00;;
20593;SDS011;10455;48.732;10.266;2023-04-15T10:27:38;8.18;;;6.68;;
20593;SDS011;10455;48.732;10.266;2023-04-15T10:32:42;7.90;;;7.10;;
20593;SDS011;10455;48.732;10.266;2023-04-15T10:37:46;6.32;;;5.72;;
20593;SDS011;10455;48.732;10.266;2023-04-15T10:42:48;7.70;;;5.50;;
20593;SDS011;10455;48.732;10.266;2023-04-15T10:47:52;7.90;;;6.20;;
20593;SDS011;10455;48.732;10.266;2023-04-15T10:52:56;7.53;;;6.68;;
20593;SDS011;10455;48.732;10.266;2023-04-15T10:57:58;7.47;;;6.78;;
20593;SDS011;10455;48.732;10.266;2023-04-15T11:03:06;9.60;;;7.10;;
20593;SDS011;10455;48.732;10.266;2023-04-15T11:08:09;8.82;;;6.35;;
20593;SDS011;10455;48.732;10.266;2023-04-15T11:13:14;8.98;;;6.63;;
20593;SDS011;10455;48.732;10.266;2023-04-15T11:18:19;6.35;;;5.82;;
20593;SDS011;10455;48.732;10.266;2023-04-15T11:23:26;6.35;;;5.65;;
20593;SDS011;10455;48.732;10.266;2023-04-15T11:28:31;6.07;;;5.47;;
20593;SDS011;10455;48.732;10.266;2023-04-15T11:33:34;4.50;;;3.38;;
20593;SDS011;10455;48.732;10.266;2023-04-15T11:38:36;4.20;;;3.80;;
20593;SDS011;10455;48.732;10.266;2023-04-15T11:43:42;8.73;;;7.82;;
20593;SDS011;10455;48.732;10.266;2023-04-15T11:48:45;6.20;;;5.68;;
20593;SDS011;10455;48.732;10.266;2023-04-15T11:53:48;6.25;;;5.65;;
20593;SDS011;10455;48.732;10.266;2023-04-15T11:58:51;6.50;;;5.90;;
20593;SDS011;10455;48.732;10.266;2023-04-15T12:03:55;6.50;;;5.90;;
20593;SDS011;10455;48.732;10.266;2023-04-15T12:09:00;4.55;;;3.33;;
20593;SDS011;10455;48.732;10.266;2023-04-15T12:14:09;5.10;;;4.60;;
20593;SDS011;10455;48.732;10.266;2023-04-15T12:19:22;8.88;;;4.88;;
20593;SDS011;10455;48.732;10.266;2023-04-15T12:24:25;4.18;;;3.10;;
20593;SDS011;10455;48.732;10.266;2023-04-15T12:29:28;4.53;;;4.13;;
20593;SDS011;10455;48.732;10.266;2023-04-15T12:34:34;5.00;;;4.03;;
20593;SDS011;10455;48.732;10.266;2023-04-15T12:39:37;3.60;;;3.30;;
20593;SDS011;10455;48.732;10.266;2023-04-15T12:44:41;5.17;;;3.53;;
20593;SDS011;10455;48.732;10.266;2023-04-15T12:49:44;3.70;;;3.40;;
20593;SDS011;10455;48.732;10.266;2023-04-15T12:54:48;3.50;;;3.20;;
20593;SDS011;10455;48.732;10.266;2023-04-15T12:59:50;3.77;;;3.30;;
20593;SDS011;10455;48.732;10.266;2023-04-15T13:04:54;4.87;;;4.40;;
20593;SDS011;10455;48.732;10.266;2023-04-15T13:09:55;5.10;;;4.60;;
20593;SDS011;10455;48.732;10.266;2023-04-15T13:14:57;5.07;;;4.63;;
20593;SDS011;10455;48.732;10.266;2023-04-15T13:20:01;9.50;;;8.70;;
20593;SDS011;10455;48.732;10.266;2023-04-15T13:25:03;6.27;;;5.00;;
20593;SDS011;10455;48.732;10.266;2023-04-15T13:30:06;5.03;;;4.63;;
20593;SDS011;10455;48.732;10.266;2023-04-15T13:35:10;4.63;;;4.13;;
20593;SDS011;10455;48.732;10.266;2023-04-15T13:40:12;5.30;;;3.77;;
20593;SDS011;10455;48.732;10.266;2023-04-15T13:45:14;5.23;;;4.73;;
20593;SDS011;10455;48.732;10.266;2023-04-15T13:50:17;5.13;;;4.00;;
20593;SDS011;10455;48.732;10.266;2023-04-15T13:55:19;3.93;;;3.60;;
20593;SDS011;10455;48.732;10.266;2023-04-15T14:00:21;3.53;;;3.30;;
20593;SDS011;10455;48.732;10.266;2023-04-15T14:05:25;4.00;;;3.40;;
20593;SDS011;10455;48.732;10.266;2023-04-15T14:10:27;3.73;;;3.17;;
20593;SDS011;10455;48.732;10.266;2023-04-15T14:15:29;3.67;;;3.10;;
20593;SDS011;10455;48.732;10.266;2023-04-15T14:20:32;3.67;;;3.10;;
20593;SDS011;10455;48.732;10.266;2023-04-15T14:25:34;3.50;;;3.10;;
20593;SDS011;10455;48.732;10.266;2023-04-15T14:30:38;3.37;;;3.17;;
20593;SDS011;10455;48.732;10.266;2023-04-15T14:35:41;3.90;;;3.60;;
20593;SDS011;10455;48.732;10.266;2023-04-15T14:40:43;5.10;;;3.60;;
20593;SDS011;10455;48.732;10.266;2023-04-15T14:45:45;4.60;;;3.93;;
20593;SDS011;10455;48.732;10.266;2023-04-15T14:50:48;5.53;;;3.40;;
20593;SDS011;10455;48.732;10.266;2023-04-15T14:55:50;3.63;;;3.30;;
20593;SDS011;10455;48.732;10.266;2023-04-15T15:00:52;3.70;;;3.40;;
20593;SDS011;10455;48.732;10.266;2023-04-15T15:05:55;3.60;;;3.40;;
20593;SDS011;10455;48.732;10.266;2023-04-15T15:10:57;3.97;;;3.13;;
20593;SDS011;10455;48.732;10.266;2023-04-15T15:15:59;4.40;;;3.50;;
20593;SDS011;10455;48.732;10.266;2023-04-15T15:21:03;3.83;;;3.43;;
20593;SDS011;10455;48.732;10.266;2023-04-15T15:26:06;4.00;;;3.70;;
20593;SDS011;10455;48.732;10.266;2023-04-15T15:31:07;3.90;;;3.60;;
20593;SDS011;10455;48.732;10.266;2023-04-15T15:36:11;4.33;;;3.87;;
20593;SDS011;10455;48.732;10.266;2023-04-15T15:41:13;4.13;;;3.73;;
20593;SDS011;10455;48.732;10.266;2023-04-15T15:46:15;4.90;;;4.57;;
20593;SDS011;10455;48.732;10.266;2023-04-15T15:51:18;4.23;;;3.90;;
20593;SDS011;10455;48.732;10.266;2023-04-15T15:56:20;3.77;;;3.53;;
20593;SDS011;10455;48.732;10.266;2023-04-15T16:01:22;4.57;;;3.80;;
20593;SDS011;10455;48.732;10.266;2023-04-15T16:06:26;4.20;;;4.00;;
20593;SDS011;10455;48.732;10.266;2023-04-15T16:11:28;4.33;;;3.87;;
20593;SDS011;10455;48.732;10.266;2023-04-15T16:16:30;4.40;;;4.10;;
20593;SDS011;10455;48.732;10.266;2023-04-15T16:21:33;3.70;;;3.50;;
20593;SDS011;10455;48.732;10.266;2023-04-15T16:26:35;4.10;;;3.80;;
20593;SDS011;10455;48.732;10.266;2023-04-15T16:31:37;3.37;;;3.13;;
20593;SDS011;10455;48.732;10.266;2023-04-15T16:36:41;3.30;;;3.10;;
20593;SDS011;10455;48.732;10.266;2023-04-15T16:41:43;2.70;;;2.50;;
20593;SDS011;10455;48.732;10.266;2023-04-15T16:46:45;3.30;;;2.97;;
20593;SDS011;10455;48.732;10.266;2023-04-15T16:51:49;3.00;;;2.70;;
20593;SDS011;10455;48.732;10.266;2023-04-15T16:56:50;3.40;;;3.00;;
20593;SDS011;10455;48.732;10.266;2023-04-15T17:01:52;3.87;;;3.40;;
20593;SDS011;10455;48.732;10.266;2023-04-15T17:06:56;4.50;;;4.10;;
20593;SDS011;10455;48.732;10.266;2023-04-15T17:11:58;5.00;;;4.50;;
20593;SDS011;10455;48.732;10.266;2023-04-15T17:17:01;4.57;;;4.17;;
20593;SDS011;10455;48.732;10.266;2023-04-15T17:22:16;5.77;;;5.17;;
20593;SDS011;10455;48.732;10.266;2023-04-15T17:27:21;5.27;;;4.87;;
20593;SDS011;10455;48.732;10.266;2023-04-15T17:32:24;6.33;;;5.73;;
20593;SDS011;10455;48.732;10.266;2023-04-15T17:37:32;6.90;;;6.23;;
20593;SDS011;10455;48.732;10.266;2023-04-15T17:42:33;7.47;;;6.43;;
20593;SDS011;10455;48.732;10.266;2023-04-15T17:47:35;5.67;;;5.17;;
20593;SDS011;10455;48.732;10.266;2023-04-15T17:52:39;4.53;;;4.13;;
20593;SDS011;10455;48.732;10.266;2023-04-15T17:57:41;4.30;;;3.90;;
20593;SDS011;10455;48.732;10.266;2023-04-15T18:02:43;4.47;;;4.07;;
20593;SDS011;10455;48.732;10.266;2023-04-15T18:07:46;5.40;;;5.00;;
20593;SDS011;10455;48.732;10.266;2023-04-15T18:12:48;5.57;;;5.07;;
20593;SDS011;10455;48.732;10.266;2023-04-15T18:17:50;16.63;;;10.60;;
20593;SDS011;10455;48.732;10.266;2023-04-15T18:22:54;6.50;;;5.90;;
20593;SDS011;10455;48.732;10.266;2023-04-15T18:27:56;5.80;;;5.27;;
20593;SDS011;10455;48.732;10.266;2023-04-15T18:32:58;5.00;;;4.60;;
20593;SDS011;10455;48.732;10.266;2023-04-15T18:38:02;5.27;;;4.23;;
20593;SDS011;10455;48.732;10.266;2023-04-15T18:43:04;5.67;;;5.17;;
20593;SDS011;10455;48.732;10.266;2023-04-15T18:48:06;7.10;;;5.47;;
20593;SDS011;10455;48.732;10.266;2023-04-15T18:53:09;5.60;;;5.10;;
20593;SDS011;10455;48.732;10.266;2023-04-15T18:58:11;6.17;;;5.30;;
20593;SDS011;10455;48.732;10.266;2023-04-15T19:03:13;4.73;;;4.33;;
20593;SDS011;10455;48.732;10.266;2023-04-15T19:08:16;5.00;;;4.60;;
20593;SDS011;10455;48.732;10.266;2023-04-15T19:13:18;4.30;;;3.90;;
20593;SDS011;10455;48.732;10.266;2023-04-15T19:18:21;4.50;;;4.03;;
20593;SDS011;10455;48.732;10.266;2023-04-15T19:23:24;4.43;;;4.10;;
20593;SDS011;10455;48.732;10.266;2023-04-15T19:28:26;4.20;;;3.80;;
20593;SDS011;10455;48.732;10.266;2023-04-15T19:33:28;4.90;;;4.50;;
20593;SDS011;10455;48.732;10.266;2023-04-15T19:38:32;4.80;;;4.40;;
20593;SDS011;10455;48.732;10.266;2023-04-15T19:43:35;4.03;;;3.67;;
20593;SDS011;10455;48.732;10.266;2023-04-15T19:48:37;4.47;;;4.07;;
20593;SDS011;10455;48.732;10.266;2023-04-15T19:53:40;3.87;;;3.57;;
20593;SDS011;10455;48.732;10.266;2023-04-15T19:58:42;3.23;;;2.90;;
20593;SDS011;10455;48.732;10.266;2023-04-15T20:03:46;2.50;;;2.30;;
20593;SDS011;10455;48.732;10.266;2023-04-15T20:08:50;2.63;;;2.30;;
20593;SDS011;10455;48.732;10.266;2023-04-15T20:13:52;3.07;;;2.87;;
20593;SDS011;10455;48.732;10.266;2023-04-15T20:18:54;3.00;;;2.80;;
20593;SDS011;10455;48.732;10.266;2023-04-15T20:23:58;2.10;;;2.00;;
20593;SDS011;10455;48.732;10.266;2023-04-15T20:29:00;2.00;;;1.90;;
20593;SDS011;10455;48.732;10.266;2023-04-15T20:34:02;2.73;;;2.53;;
20593;SDS011;10455;48.732;10.266;2023-04-15T20:39:06;2.27;;;2.13;;
20593;SDS011;10455;48.732;10.266;2023-04-15T20:44:07;2.30;;;2.20;;
20593;SDS011;10455;48.732;10.266;2023-04-15T20:49:09;2.50;;;2.30;;
20593;SDS011;10455;48.732;10.266;2023-04-15T20:54:13;3.03;;;2.30;;
20593;SDS011;10455;48.732;10.266;2023-04-15T20:59:15;3.43;;;3.10;;
20593;SDS011;10455;48.732;10.266;2023-04-15T21:04:17;4.33;;;3.93;;
20593;SDS011;10455;48.732;10.266;2023-04-15T21:09:21;4.50;;;4.10;;
20593;SDS011;10455;48.732;10.266;2023-04-15T21:14:23;4.53;;;4.13;;
20593;SDS011;10455;48.732;10.266;2023-04-15T21:19:25;4.07;;;3.77;;
20593;SDS011;10455;48.732;10.266;2023-04-15T21:24:28;3.37;;;3.17;;
20593;SDS011;10455;48.732;10.266;2023-04-15T21:29:30;3.60;;;3.30;;
20593;SDS011;10455;48.732;10.266;2023-04-15T21:34:32;3.23;;;2.97;;
20593;SDS011;10455;48.732;10.266;2023-04-15T21:39:35;4.00;;;3.70;;
20593;SDS011;10455;48.732;10.266;2023-04-15T21:44:37;3.97;;;3.67;;
20593;SDS011;10455;48.732;10.266;2023-04-15T21:49:39;5.10;;;4.70;;
20593;SDS011;10455;48.732;10.266;2023-04-15T21:54:42;5.10;;;4.70;;
20593;SDS011;10455;48.732;10.266;2023-04-15T21:59:44;4.77;;;4.37;;
20593;SDS011;10455;48.732;10.266;2023-04-15T22:04:46;4.87;;;4.47;;
20593;SDS011;10455;48.732;10.266;2023-04-15T22:09:49;5.40;;;5.00;;
20593;SDS011;10455;48.732;10.266;2023-04-15T22:14:51;5.67;;;5.20;;
20593;SDS011;10455;48.732;10.266;2023-04-15T22:19:53;5.30;;;4.77;;
20593;SDS011;10455;48.732;10.266;2023-04-15T22:24:56;5.80;;;5.30;;
20593;SDS011;10455;48.732;10.266;2023-04-15T22:29:58;6.40;;;5.80;;
20593;SDS011;10455;48.732;10.266;2023-04-15T22:35:00;6.03;;;5.53;;
20593;SDS011;10455;48.732;10.266;2023-04-15T22:40:04;6.60;;;5.93;;
20593;SDS011;10455;48.732;10.266;2023-04-15T22:45:07;7.67;;;6.97;;
20593;SDS011;10455;48.732;10.266;2023-04-15T22:50:09;7.13;;;6.43;;
20593;SDS011;10455;48.732;10.266;2023-04-15T22:55:13;7.70;;;7.00;;
20593;SDS011;10455;48.732;10.266;2023-04-15T23:00:15;7.90;;;7.20;;
20593;SDS011;10455;48.732;10.266;2023-04-15T23:05:17;7.07;;;6.47;;
20593;SDS011;10455;48.732;10.266;2023-04-15T23:10:20;6.03;;;5.50;;
20593;SDS011;10455;48.732;10.266;2023-04-15T23:15:22;5.97;;;5.47;;
20593;SDS011;10455;48.732;10.266;2023-04-15T23:20:25;5.53;;;5.03;;
20593;SDS011;10455;48.732;10.266;2023-04-15T23:25:28;5.27;;;4.87;;
20593;SDS011;10455;48.732;10.266;2023-04-15T23:30:30;5.47;;;4.97;;
20593;SDS011;10455;48.732;10.266;2023-04-15T23:35:32;6.17;;;5.60;;
20593;SDS011;10455;48.732;10.266;2023-04-15T23:40:35;6.27;;;5.77;;
20593;SDS011;10455;48.732;10.266;2023-04-15T23:45:37;7.30;;;6.60;;
20593;SDS011;10455;48.732;10.266;2023-04-15T23:50:39;10.00;;;7.17;;
20593;SDS011;10455;48.732;10.266;2023-04-15T23:55:42;10.60;;;9.00;;
